sensor_id;sensor_type;location;lat;lon;timestamp;P1;durP1;ratioP1;P2;durP2;ratioP2
74689;SDS011;63221;51.860;-2.188;2023-04-15T00:01:54;4.97;;;1.80;;
74689;SDS011;63221;51.860;-2.188;2023-04-15T00:04:22;4.72;;;2.17;;
74689;SDS011;63221;51.860;-2.188;2023-04-15T00:06:51;4.70;;;2.00;;
74689;SDS011;63221;51.860;-2.188;2023-04-15T00:09:17;3.05;;;1.73;;
74689;SDS011;63221;51.860;-2.188;2023-04-15T00:11:43;4.40;;;2.40;;
74689;SDS011;63221;51.860;-2.188;2023-04-15T00:14:09;4.78;;;2.30;;
74689;SDS011;63221;51.860;-2.188;2023-04-15T00:16:35;9.30;;;4.20;;
74689;SDS011;63221;51.860;-2.188;2023-04-15T00:19:01;7.03;;;3.08;;
74689;SDS011;63221;51.860;-2.188;2023-04-15T00:21:26;7.37;;;3.00;;
74689;SDS011;63221;51.860;-2.188;2023-04-15T00:23:53;5.35;;;3.08;;
74689;SDS011;63221;51.860;-2.188;2023-04-15T00:26:18;6.47;;;2.60;;
74689;SDS011;63221;51.860;-2.188;2023-04-15T00:28:44;3.83;;;2.38;;
74689;SDS011;63221;51.860;-2.188;2023-04-15T00:31:10;5.30;;;2.17;;
74689;SDS011;63221;51.860;-2.188;2023-04-15T00:33:36;5.10;;;2.70;;
74689;SDS011;63221;51.860;-2.188;2023-04-15T00:36:01;7.53;;;3.00;;
74689;SDS011;63221;51.860;-2.188;2023-04-15T00:38:27;4.80;;;2.55;;
74689;SDS011;63221;51.860;-2.188;2023-04-15T00:40:53;5.07;;;3.07;;
74689;SDS011;63221;51.860;-2.188;2023-04-15T00:43:20;5.97;;;3.17;;
74689;SDS011;63221;51.860;-2.188;2023-04-15T00:45:45;6.10;;;3.33;;
74689;SDS011;63221;51.860;-2.188;2023-04-15T00:48:11;6.07;;;2.97;;
74689;SDS011;63221;51.860;-2.188;2023-04-15T00:50:37;7.23;;;3.93;;
74689;SDS011;63221;51.860;-2.188;2023-04-15T00:53:02;5.05;;;2.47;;
74689;SDS011;63221;51.860;-2.188;2023-04-15T00:55:28;4.60;;;2.70;;
74689;SDS011;63221;51.860;-2.188;2023-04-15T00:57:53;4.93;;;2.97;;
74689;SDS011;63221;51.860;-2.188;2023-04-15T01:00:19;6.53;;;2.93;;
74689;SDS011;63221;51.860;-2.188;2023-04-15T01:02:45;6.65;;;3.40;;
74689;SDS011;63221;51.860;-2.188;2023-04-15T01:05:10;6.83;;;3.33;;
74689;SDS011;63221;51.860;-2.188;2023-04-15T01:07:35;6.93;;;3.90;;
74689;SDS011;63221;51.860;-2.188;2023-04-15T01:10:04;5.87;;;3.47;;
74689;SDS011;63221;51.860;-2.188;2023-04-15T01:12:31;7.45;;;3.90;;
74689;SDS011;63221;51.860;-2.188;2023-04-15T01:14:57;5.78;;;3.60;;
74689;SDS011;63221;51.860;-2.188;2023-04-15T01:17:23;6.70;;;2.80;;
74689;SDS011;63221;51.860;-2.188;2023-04-15T01:19:49;8.05;;;3.53;;
74689;SDS011;63221;51.860;-2.188;2023-04-15T01:22:15;6.28;;;3.08;;
74689;SDS011;63221;51.860;-2.188;2023-04-15T01:24:41;7.33;;;2.50;;
74689;SDS011;63221;51.860;-2.188;2023-04-15T01:27:11;6.28;;;3.38;;
74689;SDS011;63221;51.860;-2.188;2023-04-15T01:29:37;6.30;;;3.67;;
74689;SDS011;63221;51.860;-2.188;2023-04-15T01:32:03;6.93;;;2.20;;
74689;SDS011;63221;51.860;-2.188;2023-04-15T01:34:28;7.93;;;3.40;;
74689;SDS011;63221;51.860;-2.188;2023-04-15T01:36:53;6.57;;;3.13;;
74689;SDS011;63221;51.860;-2.188;2023-04-15T01:39:19;9.13;;;3.28;;
74689;SDS011;63221;51.860;-2.188;2023-04-15T01:41:44;5.30;;;3.00;;
74689;SDS011;63221;51.860;-2.188;2023-04-15T01:44:10;7.37;;;3.50;;
74689;SDS011;63221;51.860;-2.188;2023-04-15T01:46:35;6.72;;;3.00;;
74689;SDS011;63221;51.860;-2.188;2023-04-15T01:49:01;6.67;;;3.57;;
74689;SDS011;63221;51.860;-2.188;2023-04-15T01:51:26;8.00;;;3.87;;
74689;SDS011;63221;51.860;-2.188;2023-04-15T01:53:52;6.20;;;3.63;;
74689;SDS011;63221;51.860;-2.188;2023-04-15T01:56:20;4.23;;;3.27;;
74689;SDS011;63221;51.860;-2.188;2023-04-15T01:58:46;6.53;;;2.58;;
74689;SDS011;63221;51.860;-2.188;2023-04-15T02:01:11;6.53;;;3.10;;
74689;SDS011;63221;51.860;-2.188;2023-04-15T02:03:37;8.50;;;3.20;;
74689;SDS011;63221;51.860;-2.188;2023-04-15T02:06:03;6.95;;;2.70;;
74689;SDS011;63221;51.860;-2.188;2023-04-15T02:08:30;7.70;;;3.53;;
74689;SDS011;63221;51.860;-2.188;2023-04-15T02:10:55;7.00;;;2.97;;
74689;SDS011;63221;51.860;-2.188;2023-04-15T02:13:21;6.90;;;4.33;;
74689;SDS011;63221;51.860;-2.188;2023-04-15T02:15:49;8.23;;;3.75;;
74689;SDS011;63221;51.860;-2.188;2023-04-15T02:18:16;6.33;;;3.60;;
74689;SDS011;63221;51.860;-2.188;2023-04-15T02:20:41;4.45;;;3.10;;
74689;SDS011;63221;51.860;-2.188;2023-04-15T02:23:10;4.50;;;2.63;;
74689;SDS011;63221;51.860;-2.188;2023-04-15T02:25:36;5.88;;;3.67;;
74689;SDS011;63221;51.860;-2.188;2023-04-15T02:28:03;5.30;;;3.20;;
74689;SDS011;63221;51.860;-2.188;2023-04-15T02:30:30;7.93;;;3.50;;
74689;SDS011;63221;51.860;-2.188;2023-04-15T02:32:56;5.10;;;3.50;;
74689;SDS011;63221;51.860;-2.188;2023-04-15T02:35:21;6.40;;;2.90;;
74689;SDS011;63221;51.860;-2.188;2023-04-15T02:37:49;5.00;;;2.87;;
74689;SDS011;63221;51.860;-2.188;2023-04-15T02:40:15;6.38;;;3.75;;
74689;SDS011;63221;51.860;-2.188;2023-04-15T02:42:41;5.60;;;3.67;;
74689;SDS011;63221;51.860;-2.188;2023-04-15T02:45:08;6.85;;;3.15;;
74689;SDS011;63221;51.860;-2.188;2023-04-15T02:47:34;4.78;;;3.08;;
74689;SDS011;63221;51.860;-2.188;2023-04-15T02:50:01;6.13;;;2.73;;
74689;SDS011;63221;51.860;-2.188;2023-04-15T02:52:31;6.00;;;3.50;;
74689;SDS011;63221;51.860;-2.188;2023-04-15T02:54:56;6.47;;;3.27;;
74689;SDS011;63221;51.860;-2.188;2023-04-15T02:57:27;4.65;;;2.50;;
74689;SDS011;63221;51.860;-2.188;2023-04-15T02:59:55;6.35;;;3.25;;
74689;SDS011;63221;51.860;-2.188;2023-04-15T03:02:21;7.20;;;3.50;;
74689;SDS011;63221;51.860;-2.188;2023-04-15T03:04:46;7.07;;;3.45;;
74689;SDS011;63221;51.860;-2.188;2023-04-15T03:07:12;4.35;;;3.28;;
74689;SDS011;63221;51.860;-2.188;2023-04-15T03:09:38;5.60;;;2.60;;
74689;SDS011;63221;51.860;-2.188;2023-04-15T03:12:05;5.85;;;2.85;;
74689;SDS011;63221;51.860;-2.188;2023-04-15T03:14:30;7.03;;;2.77;;
74689;SDS011;63221;51.860;-2.188;2023-04-15T03:16:56;5.67;;;3.33;;
74689;SDS011;63221;51.860;-2.188;2023-04-15T03:19:23;5.97;;;3.08;;
74689;SDS011;63221;51.860;-2.188;2023-04-15T03:21:48;4.67;;;2.47;;
74689;SDS011;63221;51.860;-2.188;2023-04-15T03:24:14;5.93;;;3.07;;
74689;SDS011;63221;51.860;-2.188;2023-04-15T03:26:39;6.47;;;3.20;;
74689;SDS011;63221;51.860;-2.188;2023-04-15T03:29:05;6.10;;;3.43;;
74689;SDS011;63221;51.860;-2.188;2023-04-15T03:31:30;5.07;;;2.70;;
74689;SDS011;63221;51.860;-2.188;2023-04-15T03:33:55;6.63;;;3.43;;
74689;SDS011;63221;51.860;-2.188;2023-04-15T03:36:21;6.55;;;3.35;;
74689;SDS011;63221;51.860;-2.188;2023-04-15T03:38:46;7.40;;;3.97;;
74689;SDS011;63221;51.860;-2.188;2023-04-15T03:41:13;7.38;;;3.40;;
74689;SDS011;63221;51.860;-2.188;2023-04-15T03:43:38;5.60;;;3.30;;
74689;SDS011;63221;51.860;-2.188;2023-04-15T03:46:04;7.17;;;3.60;;
74689;SDS011;63221;51.860;-2.188;2023-04-15T03:48:30;6.80;;;3.38;;
74689;SDS011;63221;51.860;-2.188;2023-04-15T03:50:55;7.60;;;4.03;;
74689;SDS011;63221;51.860;-2.188;2023-04-15T03:53:20;7.00;;;4.10;;
74689;SDS011;63221;51.860;-2.188;2023-04-15T03:55:46;5.43;;;3.67;;
74689;SDS011;63221;51.860;-2.188;2023-04-15T03:58:11;6.07;;;3.17;;
74689;SDS011;63221;51.860;-2.188;2023-04-15T04:00:37;6.03;;;3.23;;
74689;SDS011;63221;51.860;-2.188;2023-04-15T04:03:03;7.80;;;3.55;;
74689;SDS011;63221;51.860;-2.188;2023-04-15T04:05:29;6.20;;;3.67;;
74689;SDS011;63221;51.860;-2.188;2023-04-15T04:07:54;6.50;;;3.85;;
74689;SDS011;63221;51.860;-2.188;2023-04-15T04:10:20;5.53;;;3.23;;
74689;SDS011;63221;51.860;-2.188;2023-04-15T04:12:45;5.53;;;3.27;;
74689;SDS011;63221;51.860;-2.188;2023-04-15T04:15:11;7.57;;;3.20;;
74689;SDS011;63221;51.860;-2.188;2023-04-15T04:17:36;9.00;;;4.13;;
74689;SDS011;63221;51.860;-2.188;2023-04-15T04:20:01;7.43;;;3.77;;
74689;SDS011;63221;51.860;-2.188;2023-04-15T04:22:27;7.27;;;3.57;;
74689;SDS011;63221;51.860;-2.188;2023-04-15T04:24:52;6.30;;;3.30;;
74689;SDS011;63221;51.860;-2.188;2023-04-15T04:27:18;6.67;;;3.83;;
74689;SDS011;63221;51.860;-2.188;2023-04-15T04:29:43;7.83;;;3.00;;
74689;SDS011;63221;51.860;-2.188;2023-04-15T04:32:11;6.13;;;3.13;;
74689;SDS011;63221;51.860;-2.188;2023-04-15T04:34:36;7.70;;;3.00;;
74689;SDS011;63221;51.860;-2.188;2023-04-15T04:37:02;6.50;;;3.63;;
74689;SDS011;63221;51.860;-2.188;2023-04-15T04:39:27;8.77;;;3.33;;
74689;SDS011;63221;51.860;-2.188;2023-04-15T04:41:53;6.83;;;2.80;;
74689;SDS011;63221;51.860;-2.188;2023-04-15T04:44:18;8.23;;;3.80;;
74689;SDS011;63221;51.860;-2.188;2023-04-15T04:46:43;7.07;;;3.17;;
74689;SDS011;63221;51.860;-2.188;2023-04-15T04:49:09;9.82;;;4.35;;
74689;SDS011;63221;51.860;-2.188;2023-04-15T04:51:34;6.70;;;3.27;;
74689;SDS011;63221;51.860;-2.188;2023-04-15T04:54:00;8.07;;;4.13;;
74689;SDS011;63221;51.860;-2.188;2023-04-15T04:56:26;8.00;;;3.58;;
74689;SDS011;63221;51.860;-2.188;2023-04-15T04:58:51;8.67;;;3.70;;
74689;SDS011;63221;51.860;-2.188;2023-04-15T05:01:17;6.33;;;4.23;;
74689;SDS011;63221;51.860;-2.188;2023-04-15T05:03:42;7.33;;;3.60;;
74689;SDS011;63221;51.860;-2.188;2023-04-15T05:06:08;7.30;;;3.80;;
74689;SDS011;63221;51.860;-2.188;2023-04-15T05:08:33;9.93;;;4.87;;
74689;SDS011;63221;51.860;-2.188;2023-04-15T05:10:59;6.23;;;4.03;;
74689;SDS011;63221;51.860;-2.188;2023-04-15T05:13:24;10.18;;;3.95;;
74689;SDS011;63221;51.860;-2.188;2023-04-15T05:15:50;8.20;;;4.03;;
74689;SDS011;63221;51.860;-2.188;2023-04-15T05:18:15;9.47;;;4.13;;
74689;SDS011;63221;51.860;-2.188;2023-04-15T05:20:41;8.70;;;3.92;;
74689;SDS011;63221;51.860;-2.188;2023-04-15T05:23:06;8.47;;;4.37;;
74689;SDS011;63221;51.860;-2.188;2023-04-15T05:25:31;5.63;;;3.13;;
74689;SDS011;63221;51.860;-2.188;2023-04-15T05:27:57;6.93;;;3.20;;
74689;SDS011;63221;51.860;-2.188;2023-04-15T05:30:22;7.43;;;4.07;;
74689;SDS011;63221;51.860;-2.188;2023-04-15T05:32:48;7.60;;;3.65;;
74689;SDS011;63221;51.860;-2.188;2023-04-15T05:35:13;6.13;;;3.50;;
74689;SDS011;63221;51.860;-2.188;2023-04-15T05:37:39;7.55;;;3.63;;
74689;SDS011;63221;51.860;-2.188;2023-04-15T05:40:05;6.83;;;4.07;;
74689;SDS011;63221;51.860;-2.188;2023-04-15T05:42:30;9.47;;;3.37;;
74689;SDS011;63221;51.860;-2.188;2023-04-15T05:44:56;6.60;;;3.33;;
74689;SDS011;63221;51.860;-2.188;2023-04-15T05:47:21;6.20;;;3.10;;
74689;SDS011;63221;51.860;-2.188;2023-04-15T05:49:46;6.40;;;3.17;;
74689;SDS011;63221;51.860;-2.188;2023-04-15T05:52:12;5.20;;;3.40;;
74689;SDS011;63221;51.860;-2.188;2023-04-15T05:54:37;6.43;;;3.67;;
74689;SDS011;63221;51.860;-2.188;2023-04-15T05:57:03;6.63;;;4.33;;
74689;SDS011;63221;51.860;-2.188;2023-04-15T05:59:28;7.80;;;3.53;;
74689;SDS011;63221;51.860;-2.188;2023-04-15T06:01:53;7.80;;;3.03;;
74689;SDS011;63221;51.860;-2.188;2023-04-15T06:04:19;5.05;;;3.10;;
74689;SDS011;63221;51.860;-2.188;2023-04-15T06:06:44;7.20;;;3.30;;
74689;SDS011;63221;51.860;-2.188;2023-04-15T06:09:10;5.13;;;2.93;;
74689;SDS011;63221;51.860;-2.188;2023-04-15T06:11:35;5.63;;;2.57;;
74689;SDS011;63221;51.860;-2.188;2023-04-15T06:14:01;7.43;;;3.05;;
74689;SDS011;63221;51.860;-2.188;2023-04-15T06:16:26;7.07;;;3.00;;
74689;SDS011;63221;51.860;-2.188;2023-04-15T06:18:52;4.60;;;2.40;;
74689;SDS011;63221;51.860;-2.188;2023-04-15T06:21:17;6.45;;;2.50;;
74689;SDS011;63221;51.860;-2.188;2023-04-15T06:23:43;3.70;;;2.70;;
74689;SDS011;63221;51.860;-2.188;2023-04-15T06:26:09;5.67;;;2.00;;
74689;SDS011;63221;51.860;-2.188;2023-04-15T06:28:34;7.15;;;2.60;;
74689;SDS011;63221;51.860;-2.188;2023-04-15T06:31:00;7.30;;;2.57;;
74689;SDS011;63221;51.860;-2.188;2023-04-15T06:33:26;5.95;;;2.20;;
74689;SDS011;63221;51.860;-2.188;2023-04-15T06:35:51;7.93;;;2.50;;
74689;SDS011;63221;51.860;-2.188;2023-04-15T06:38:17;3.85;;;1.90;;
74689;SDS011;63221;51.860;-2.188;2023-04-15T06:40:42;5.27;;;1.90;;
74689;SDS011;63221;51.860;-2.188;2023-04-15T06:43:08;3.83;;;2.03;;
74689;SDS011;63221;51.860;-2.188;2023-04-15T06:45:33;5.45;;;1.60;;
74689;SDS011;63221;51.860;-2.188;2023-04-15T06:47:59;3.70;;;2.33;;
74689;SDS011;63221;51.860;-2.188;2023-04-15T06:50:25;4.20;;;2.27;;
74689;SDS011;63221;51.860;-2.188;2023-04-15T06:52:51;5.72;;;2.78;;
74689;SDS011;63221;51.860;-2.188;2023-04-15T06:55:17;5.95;;;2.35;;
74689;SDS011;63221;51.860;-2.188;2023-04-15T06:57:42;6.50;;;2.40;;
74689;SDS011;63221;51.860;-2.188;2023-04-15T07:00:08;6.40;;;2.60;;
74689;SDS011;63221;51.860;-2.188;2023-04-15T07:02:36;8.45;;;2.78;;
74689;SDS011;63221;51.860;-2.188;2023-04-15T07:05:01;6.07;;;2.67;;
74689;SDS011;63221;51.860;-2.188;2023-04-15T07:07:26;4.40;;;2.23;;
74689;SDS011;63221;51.860;-2.188;2023-04-15T07:09:52;5.15;;;2.22;;
74689;SDS011;63221;51.860;-2.188;2023-04-15T07:12:18;4.20;;;2.10;;
74689;SDS011;63221;51.860;-2.188;2023-04-15T07:14:43;4.20;;;2.30;;
74689;SDS011;63221;51.860;-2.188;2023-04-15T07:17:09;9.47;;;3.30;;
74689;SDS011;63221;51.860;-2.188;2023-04-15T07:19:34;5.37;;;2.83;;
74689;SDS011;63221;51.860;-2.188;2023-04-15T07:22:00;5.90;;;2.70;;
74689;SDS011;63221;51.860;-2.188;2023-04-15T07:24:25;7.55;;;2.70;;
74689;SDS011;63221;51.860;-2.188;2023-04-15T07:26:52;6.27;;;2.67;;
74689;SDS011;63221;51.860;-2.188;2023-04-15T07:29:23;6.53;;;2.88;;
74689;SDS011;63221;51.860;-2.188;2023-04-15T07:31:49;5.93;;;3.25;;
74689;SDS011;63221;51.860;-2.188;2023-04-15T07:34:15;5.93;;;2.50;;
74689;SDS011;63221;51.860;-2.188;2023-04-15T07:36:41;6.90;;;3.40;;
74689;SDS011;63221;51.860;-2.188;2023-04-15T07:39:07;6.00;;;3.30;;
74689;SDS011;63221;51.860;-2.188;2023-04-15T07:41:32;3.97;;;2.58;;
74689;SDS011;63221;51.860;-2.188;2023-04-15T07:43:58;6.00;;;2.47;;
74689;SDS011;63221;51.860;-2.188;2023-04-15T07:46:23;10.63;;;3.37;;
74689;SDS011;63221;51.860;-2.188;2023-04-15T07:48:51;6.68;;;2.50;;
74689;SDS011;63221;51.860;-2.188;2023-04-15T07:51:16;9.10;;;3.47;;
74689;SDS011;63221;51.860;-2.188;2023-04-15T07:53:43;7.75;;;2.67;;
74689;SDS011;63221;51.860;-2.188;2023-04-15T07:56:09;6.47;;;2.75;;
74689;SDS011;63221;51.860;-2.188;2023-04-15T07:58:35;6.55;;;2.42;;
74689;SDS011;63221;51.860;-2.188;2023-04-15T08:01:01;6.30;;;2.90;;
74689;SDS011;63221;51.860;-2.188;2023-04-15T08:03:26;6.55;;;2.55;;
74689;SDS011;63221;51.860;-2.188;2023-04-15T08:05:52;6.83;;;3.10;;
74689;SDS011;63221;51.860;-2.188;2023-04-15T08:08:18;6.95;;;3.25;;
74689;SDS011;63221;51.860;-2.188;2023-04-15T08:10:43;6.47;;;2.57;;
74689;SDS011;63221;51.860;-2.188;2023-04-15T08:13:09;5.70;;;3.10;;
74689;SDS011;63221;51.860;-2.188;2023-04-15T08:15:34;8.87;;;3.23;;
74689;SDS011;63221;51.860;-2.188;2023-04-15T08:18:00;7.47;;;2.40;;
74689;SDS011;63221;51.860;-2.188;2023-04-15T08:20:25;6.30;;;2.70;;
74689;SDS011;63221;51.860;-2.188;2023-04-15T08:22:51;5.93;;;2.83;;
74689;SDS011;63221;51.860;-2.188;2023-04-15T08:25:17;6.07;;;3.13;;
74689;SDS011;63221;51.860;-2.188;2023-04-15T08:27:44;7.32;;;3.85;;
74689;SDS011;63221;51.860;-2.188;2023-04-15T08:30:10;6.72;;;3.33;;
74689;SDS011;63221;51.860;-2.188;2023-04-15T08:32:36;5.20;;;2.43;;
74689;SDS011;63221;51.860;-2.188;2023-04-15T08:35:01;5.55;;;2.95;;
74689;SDS011;63221;51.860;-2.188;2023-04-15T08:37:27;5.77;;;2.73;;
74689;SDS011;63221;51.860;-2.188;2023-04-15T08:39:52;6.20;;;3.10;;
74689;SDS011;63221;51.860;-2.188;2023-04-15T08:42:18;5.13;;;3.07;;
74689;SDS011;63221;51.860;-2.188;2023-04-15T08:44:48;7.30;;;2.70;;
74689;SDS011;63221;51.860;-2.188;2023-04-15T08:47:13;6.20;;;3.33;;
74689;SDS011;63221;51.860;-2.188;2023-04-15T08:49:40;8.27;;;3.27;;
74689;SDS011;63221;51.860;-2.188;2023-04-15T08:52:08;6.10;;;3.30;;
74689;SDS011;63221;51.860;-2.188;2023-04-15T08:54:34;7.10;;;3.83;;
74689;SDS011;63221;51.860;-2.188;2023-04-15T08:57:00;5.03;;;2.63;;
74689;SDS011;63221;51.860;-2.188;2023-04-15T08:59:26;4.75;;;2.90;;
74689;SDS011;63221;51.860;-2.188;2023-04-15T09:01:54;6.72;;;3.85;;
74689;SDS011;63221;51.860;-2.188;2023-04-15T09:04:20;6.13;;;3.15;;
74689;SDS011;63221;51.860;-2.188;2023-04-15T09:06:46;6.67;;;3.00;;
74689;SDS011;63221;51.860;-2.188;2023-04-15T09:09:11;5.27;;;3.00;;
74689;SDS011;63221;51.860;-2.188;2023-04-15T09:11:38;7.65;;;3.17;;
74689;SDS011;63221;51.860;-2.188;2023-04-15T09:14:04;4.75;;;2.70;;
74689;SDS011;63221;51.860;-2.188;2023-04-15T09:16:29;6.07;;;3.13;;
74689;SDS011;63221;51.860;-2.188;2023-04-15T09:18:55;8.70;;;3.45;;
74689;SDS011;63221;51.860;-2.188;2023-04-15T09:21:21;6.77;;;3.13;;
74689;SDS011;63221;51.860;-2.188;2023-04-15T09:23:57;4.45;;;2.20;;
74689;SDS011;63221;51.860;-2.188;2023-04-15T09:26:33;5.28;;;3.28;;
74689;SDS011;63221;51.860;-2.188;2023-04-15T09:29:03;4.38;;;3.58;;
74689;SDS011;63221;51.860;-2.188;2023-04-15T09:31:30;5.45;;;2.38;;
74689;SDS011;63221;51.860;-2.188;2023-04-15T09:33:56;7.83;;;2.80;;
74689;SDS011;63221;51.860;-2.188;2023-04-15T09:36:21;5.13;;;3.00;;
74689;SDS011;63221;51.860;-2.188;2023-04-15T09:38:53;6.00;;;2.17;;
74689;SDS011;63221;51.860;-2.188;2023-04-15T09:41:20;6.93;;;2.93;;
74689;SDS011;63221;51.860;-2.188;2023-04-15T09:43:46;6.32;;;3.03;;
74689;SDS011;63221;51.860;-2.188;2023-04-15T09:46:11;4.20;;;2.80;;
74689;SDS011;63221;51.860;-2.188;2023-04-15T09:48:36;4.33;;;1.80;;
74689;SDS011;63221;51.860;-2.188;2023-04-15T09:51:02;3.37;;;2.07;;
74689;SDS011;63221;51.860;-2.188;2023-04-15T09:53:27;4.30;;;2.00;;
74689;SDS011;63221;51.860;-2.188;2023-04-15T09:55:54;5.10;;;2.80;;
74689;SDS011;63221;51.860;-2.188;2023-04-15T09:58:21;4.93;;;2.42;;
74689;SDS011;63221;51.860;-2.188;2023-04-15T10:00:48;4.83;;;2.30;;
74689;SDS011;63221;51.860;-2.188;2023-04-15T10:03:22;7.22;;;2.15;;
74689;SDS011;63221;51.860;-2.188;2023-04-15T10:05:49;4.05;;;2.97;;
74689;SDS011;63221;51.860;-2.188;2023-04-15T10:08:16;4.95;;;2.45;;
74689;SDS011;63221;51.860;-2.188;2023-04-15T10:10:46;5.85;;;2.42;;
74689;SDS011;63221;51.860;-2.188;2023-04-15T10:13:13;3.40;;;1.70;;
74689;SDS011;63221;51.860;-2.188;2023-04-15T10:15:41;5.15;;;1.85;;
74689;SDS011;63221;51.860;-2.188;2023-04-15T10:18:10;5.82;;;2.38;;
74689;SDS011;63221;51.860;-2.188;2023-04-15T10:20:39;3.80;;;1.80;;
74689;SDS011;63221;51.860;-2.188;2023-04-15T10:23:04;4.23;;;2.60;;
74689;SDS011;63221;51.860;-2.188;2023-04-15T10:25:30;3.60;;;1.90;;
74689;SDS011;63221;51.860;-2.188;2023-04-15T10:27:57;5.82;;;2.72;;
74689;SDS011;63221;51.860;-2.188;2023-04-15T10:30:23;3.80;;;2.60;;
74689;SDS011;63221;51.860;-2.188;2023-04-15T10:32:49;5.15;;;2.22;;
74689;SDS011;63221;51.860;-2.188;2023-04-15T10:35:15;3.47;;;1.90;;
74689;SDS011;63221;51.860;-2.188;2023-04-15T10:37:42;5.15;;;2.10;;
74689;SDS011;63221;51.860;-2.188;2023-04-15T10:40:28;4.97;;;1.93;;
74689;SDS011;63221;51.860;-2.188;2023-04-15T10:42:56;6.60;;;2.30;;
74689;SDS011;63221;51.860;-2.188;2023-04-15T10:45:35;4.38;;;2.15;;
74689;SDS011;63221;51.860;-2.188;2023-04-15T10:48:01;4.03;;;1.85;;
74689;SDS011;63221;51.860;-2.188;2023-04-15T10:50:29;4.80;;;1.97;;
74689;SDS011;63221;51.860;-2.188;2023-04-15T10:52:55;4.45;;;2.00;;
74689;SDS011;63221;51.860;-2.188;2023-04-15T10:55:22;3.78;;;2.25;;
74689;SDS011;63221;51.860;-2.188;2023-04-15T10:57:54;6.03;;;2.42;;
74689;SDS011;63221;51.860;-2.188;2023-04-15T11:00:25;4.90;;;2.60;;
74689;SDS011;63221;51.860;-2.188;2023-04-15T11:02:54;3.37;;;2.30;;
74689;SDS011;63221;51.860;-2.188;2023-04-15T11:08:04;3.92;;;2.33;;
74689;SDS011;63221;51.860;-2.188;2023-04-15T11:13:02;2.83;;;2.00;;
74689;SDS011;63221;51.860;-2.188;2023-04-15T11:15:29;6.35;;;3.05;;
74689;SDS011;63221;51.860;-2.188;2023-04-15T11:20:38;4.10;;;1.98;;
74689;SDS011;63221;51.860;-2.188;2023-04-15T11:23:05;5.18;;;2.35;;
74689;SDS011;63221;51.860;-2.188;2023-04-15T11:25:31;5.00;;;2.70;;
74689;SDS011;63221;51.860;-2.188;2023-04-15T11:27:58;5.03;;;2.85;;
74689;SDS011;63221;51.860;-2.188;2023-04-15T11:30:25;4.10;;;2.63;;
74689;SDS011;63221;51.860;-2.188;2023-04-15T11:32:52;4.25;;;2.10;;
74689;SDS011;63221;51.860;-2.188;2023-04-15T11:35:18;4.22;;;2.10;;
74689;SDS011;63221;51.860;-2.188;2023-04-15T11:37:44;4.07;;;2.00;;
74689;SDS011;63221;51.860;-2.188;2023-04-15T11:40:10;4.50;;;2.40;;
74689;SDS011;63221;51.860;-2.188;2023-04-15T11:42:37;3.93;;;1.60;;
74689;SDS011;63221;51.860;-2.188;2023-04-15T11:45:09;2.88;;;1.45;;
74689;SDS011;63221;51.860;-2.188;2023-04-15T11:47:39;2.75;;;1.90;;
74689;SDS011;63221;51.860;-2.188;2023-04-15T11:50:18;4.23;;;1.70;;
74689;SDS011;63221;51.860;-2.188;2023-04-15T11:53:18;4.70;;;1.80;;
74689;SDS011;63221;51.860;-2.188;2023-04-15T11:55:55;3.67;;;2.22;;
74689;SDS011;63221;51.860;-2.188;2023-04-15T11:58:24;3.30;;;1.88;;
74689;SDS011;63221;51.860;-2.188;2023-04-15T12:00:54;3.58;;;1.98;;
74689;SDS011;63221;51.860;-2.188;2023-04-15T12:08:51;4.20;;;1.67;;
74689;SDS011;63221;51.860;-2.188;2023-04-15T12:14:34;5.20;;;2.45;;
74689;SDS011;63221;51.860;-2.188;2023-04-15T12:16:41;2.95;;;2.03;;
74689;SDS011;63221;51.860;-2.188;2023-04-15T12:19:09;5.13;;;2.90;;
74689;SDS011;63221;51.860;-2.188;2023-04-15T12:21:36;2.70;;;1.77;;
74689;SDS011;63221;51.860;-2.188;2023-04-15T12:24:04;5.25;;;2.22;;
74689;SDS011;63221;51.860;-2.188;2023-04-15T12:26:35;5.10;;;2.83;;
74689;SDS011;63221;51.860;-2.188;2023-04-15T12:29:11;2.85;;;1.48;;
74689;SDS011;63221;51.860;-2.188;2023-04-15T12:31:47;2.97;;;1.55;;
74689;SDS011;63221;51.860;-2.188;2023-04-15T12:34:17;4.70;;;1.33;;
74689;SDS011;63221;51.860;-2.188;2023-04-15T12:36:49;1.80;;;1.20;;
74689;SDS011;63221;51.860;-2.188;2023-04-15T12:39:15;2.47;;;1.70;;
74689;SDS011;63221;51.860;-2.188;2023-04-15T12:41:40;2.17;;;1.33;;
74689;SDS011;63221;51.860;-2.188;2023-04-15T12:44:06;2.10;;;1.43;;
74689;SDS011;63221;51.860;-2.188;2023-04-15T12:46:32;3.45;;;2.08;;
74689;SDS011;63221;51.860;-2.188;2023-04-15T12:48:57;2.50;;;1.67;;
74689;SDS011;63221;51.860;-2.188;2023-04-15T12:51:23;2.83;;;1.20;;
74689;SDS011;63221;51.860;-2.188;2023-04-15T12:53:49;3.10;;;1.63;;
74689;SDS011;63221;51.860;-2.188;2023-04-15T12:56:15;4.53;;;2.77;;
74689;SDS011;63221;51.860;-2.188;2023-04-15T12:58:43;3.08;;;1.95;;
74689;SDS011;63221;51.860;-2.188;2023-04-15T13:01:09;3.37;;;1.83;;
74689;SDS011;63221;51.860;-2.188;2023-04-15T13:03:35;2.80;;;1.10;;
74689;SDS011;63221;51.860;-2.188;2023-04-15T13:06:00;2.13;;;1.73;;
74689;SDS011;63221;51.860;-2.188;2023-04-15T13:08:28;2.63;;;1.53;;
74689;SDS011;63221;51.860;-2.188;2023-04-15T13:10:54;2.30;;;1.52;;
74689;SDS011;63221;51.860;-2.188;2023-04-15T13:13:20;3.17;;;1.85;;
74689;SDS011;63221;51.860;-2.188;2023-04-15T13:15:46;2.30;;;1.30;;
74689;SDS011;63221;51.860;-2.188;2023-04-15T13:18:11;1.35;;;0.80;;
74689;SDS011;63221;51.860;-2.188;2023-04-15T13:20:37;2.70;;;1.40;;
74689;SDS011;63221;51.860;-2.188;2023-04-15T13:23:02;3.43;;;1.20;;
74689;SDS011;63221;51.860;-2.188;2023-04-15T13:25:27;3.17;;;1.50;;
74689;SDS011;63221;51.860;-2.188;2023-04-15T13:27:53;2.50;;;1.60;;
74689;SDS011;63221;51.860;-2.188;2023-04-15T13:30:19;3.13;;;1.67;;
74689;SDS011;63221;51.860;-2.188;2023-04-15T13:32:44;2.28;;;0.80;;
74689;SDS011;63221;51.860;-2.188;2023-04-15T13:35:10;2.97;;;1.40;;
74689;SDS011;63221;51.860;-2.188;2023-04-15T13:37:35;2.50;;;1.13;;
74689;SDS011;63221;51.860;-2.188;2023-04-15T13:40:00;2.33;;;1.10;;
74689;SDS011;63221;51.860;-2.188;2023-04-15T13:42:26;3.42;;;1.63;;
74689;SDS011;63221;51.860;-2.188;2023-04-15T13:44:52;2.73;;;1.07;;
74689;SDS011;63221;51.860;-2.188;2023-04-15T13:47:18;3.33;;;1.73;;
74689;SDS011;63221;51.860;-2.188;2023-04-15T13:49:43;3.37;;;0.80;;
74689;SDS011;63221;51.860;-2.188;2023-04-15T13:52:09;2.20;;;1.30;;
74689;SDS011;63221;51.860;-2.188;2023-04-15T13:54:35;2.40;;;1.48;;
74689;SDS011;63221;51.860;-2.188;2023-04-15T13:57:01;2.03;;;1.20;;
74689;SDS011;63221;51.860;-2.188;2023-04-15T13:59:26;2.53;;;1.23;;
74689;SDS011;63221;51.860;-2.188;2023-04-15T14:01:52;2.30;;;1.33;;
74689;SDS011;63221;51.860;-2.188;2023-04-15T14:04:17;2.28;;;1.40;;
74689;SDS011;63221;51.860;-2.188;2023-04-15T14:06:43;2.37;;;1.60;;
74689;SDS011;63221;51.860;-2.188;2023-04-15T14:09:08;1.97;;;0.83;;
74689;SDS011;63221;51.860;-2.188;2023-04-15T14:11:34;2.22;;;1.20;;
74689;SDS011;63221;51.860;-2.188;2023-04-15T14:14:00;3.00;;;1.42;;
74689;SDS011;63221;51.860;-2.188;2023-04-15T14:16:26;1.93;;;1.60;;
74689;SDS011;63221;51.860;-2.188;2023-04-15T14:18:52;2.85;;;1.40;;
74689;SDS011;63221;51.860;-2.188;2023-04-15T14:21:17;1.90;;;1.10;;
74689;SDS011;63221;51.860;-2.188;2023-04-15T14:23:43;2.08;;;1.35;;
74689;SDS011;63221;51.860;-2.188;2023-04-15T14:26:08;2.27;;;1.00;;
74689;SDS011;63221;51.860;-2.188;2023-04-15T14:28:34;2.80;;;1.10;;
74689;SDS011;63221;51.860;-2.188;2023-04-15T14:30:59;2.40;;;1.47;;
74689;SDS011;63221;51.860;-2.188;2023-04-15T14:33:25;2.30;;;1.30;;
74689;SDS011;63221;51.860;-2.188;2023-04-15T14:35:50;3.47;;;1.27;;
74689;SDS011;63221;51.860;-2.188;2023-04-15T14:38:16;1.85;;;1.05;;
74689;SDS011;63221;51.860;-2.188;2023-04-15T14:40:41;4.73;;;1.30;;
74689;SDS011;63221;51.860;-2.188;2023-04-15T14:43:07;1.60;;;1.17;;
74689;SDS011;63221;51.860;-2.188;2023-04-15T14:45:32;1.63;;;1.00;;